Terminal Aerodrome Forecast
Issued by NWS Buffalo, NY

Home | Current Version | Previous Version | Text Only | Print | Product List | Glossary On
Versions: 1 2 3 4 5 6 7 8 9 10 11 12 13 14 15 16 17 18 19 20 21 22 23 24
354
FTUS41 KBUF 240255 AAA
TAFART
TAF AMD
KART 240255Z 2403/2424 VRB03KT P6SM BKN250
     FM241500 03005KT P6SM BKN250
     FM242200 06006KT P6SM BKN100=

USA.gov is the U.S. government's official web portal to all federal, state and local government web resources and services.